sensor_id;sensor_type;location;lat;lon;timestamp;temperature;humidity
68109;SHT30;54893;49.864;19.084;2023-02-15T00:03:22;0.11;95.76
68109;SHT30;54893;49.864;19.084;2023-02-15T00:08:22;0.06;96.09
68109;SHT30;54893;49.864;19.084;2023-02-15T00:13:23;-0.03;96.37
68109;SHT30;54893;49.864;19.084;2023-02-15T00:18:23;-0.15;96.58
68109;SHT30;54893;49.864;19.084;2023-02-15T00:23:23;-0.24;96.53
68109;SHT30;54893;49.864;19.084;2023-02-15T00:28:24;-0.32;96.85
68109;SHT30;54893;49.864;19.084;2023-02-15T00:33:24;-0.42;96.58
68109;SHT30;54893;49.864;19.084;2023-02-15T00:38:27;-0.48;96.66
68109;SHT30;54893;49.864;19.084;2023-02-15T00:43:29;-0.49;96.60
68109;SHT30;54893;49.864;19.084;2023-02-15T00:48:30;-0.54;96.52
68109;SHT30;54893;49.864;19.084;2023-02-15T00:53:30;-0.54;96.75
68109;SHT30;54893;49.864;19.084;2023-02-15T00:58:31;-0.59;97.06
68109;SHT30;54893;49.864;19.084;2023-02-15T01:03:31;-0.59;96.99
68109;SHT30;54893;49.864;19.084;2023-02-15T01:08:32;-0.71;97.09
68109;SHT30;54893;49.864;19.084;2023-02-15T01:13:33;-0.78;97.07
68109;SHT30;54893;49.864;19.084;2023-02-15T01:18:34;-0.78;96.86
68109;SHT30;54893;49.864;19.084;2023-02-15T01:23:34;-0.83;97.30
68109;SHT30;54893;49.864;19.084;2023-02-15T01:28:35;-0.78;97.40
68109;SHT30;54893;49.864;19.084;2023-02-15T01:33:36;-0.79;97.43
68109;SHT30;54893;49.864;19.084;2023-02-15T01:38:36;-0.82;96.86
68109;SHT30;54893;49.864;19.084;2023-02-15T01:43:42;-0.81;97.19
68109;SHT30;54893;49.864;19.084;2023-02-15T01:48:51;-0.88;97.27
68109;SHT30;54893;49.864;19.084;2023-02-15T01:54:00;-0.75;96.19
68109;SHT30;54893;49.864;19.084;2023-02-15T01:59:06;-0.71;94.07
68109;SHT30;54893;49.864;19.084;2023-02-15T02:04:16;-0.83;95.29
68109;SHT30;54893;49.864;19.084;2023-02-15T02:09:17;-0.89;96.68
68109;SHT30;54893;49.864;19.084;2023-02-15T02:14:18;-0.99;97.12
68109;SHT30;54893;49.864;19.084;2023-02-15T02:30:35;-0.93;96.87
68109;SHT30;54893;49.864;19.084;2023-02-15T02:41:06;-1.20;97.79
68109;SHT30;54893;49.864;19.084;2023-02-15T02:46:17;-1.36;98.19
68109;SHT30;54893;49.864;19.084;2023-02-15T02:51:21;-1.61;98.48
68109;SHT30;54893;49.864;19.084;2023-02-15T02:56:30;-1.56;98.91
68109;SHT30;54893;49.864;19.084;2023-02-15T03:01:35;-1.46;98.95
68109;SHT30;54893;49.864;19.084;2023-02-15T03:12:13;-1.57;97.10
68109;SHT30;54893;49.864;19.084;2023-02-15T03:17:15;-1.35;97.27
68109;SHT30;54893;49.864;19.084;2023-02-15T03:22:22;-1.15;94.13
68109;SHT30;54893;49.864;19.084;2023-02-15T03:27:32;-0.99;94.07
68109;SHT30;54893;49.864;19.084;2023-02-15T03:32:34;-1.09;95.18
68109;SHT30;54893;49.864;19.084;2023-02-15T03:37:40;-1.26;94.97
68109;SHT30;54893;49.864;19.084;2023-02-15T03:42:42;-1.13;95.64
68109;SHT30;54893;49.864;19.084;2023-02-15T03:47:46;-1.16;99.06
68109;SHT30;54893;49.864;19.084;2023-02-15T03:52:47;-1.77;98.02
68109;SHT30;54893;49.864;19.084;2023-02-15T03:57:48;-1.68;96.95
68109;SHT30;54893;49.864;19.084;2023-02-15T04:08:26;-1.78;97.45
68109;SHT30;54893;49.864;19.084;2023-02-15T04:13:46;-1.68;97.24
68109;SHT30;54893;49.864;19.084;2023-02-15T04:18:47;-1.49;96.82
68109;SHT30;54893;49.864;19.084;2023-02-15T04:24:06;-1.50;96.98
68109;SHT30;54893;49.864;19.084;2023-02-15T04:29:26;-1.53;96.58
68109;SHT30;54893;49.864;19.084;2023-02-15T04:34:27;-1.70;97.79
68109;SHT30;54893;49.864;19.084;2023-02-15T04:39:27;-1.93;98.26
68109;SHT30;54893;49.864;19.084;2023-02-15T04:44:28;-1.93;98.60
68109;SHT30;54893;49.864;19.084;2023-02-15T04:49:28;-1.91;98.53
68109;SHT30;54893;49.864;19.084;2023-02-15T04:54:28;-2.04;98.60
68109;SHT30;54893;49.864;19.084;2023-02-15T04:59:29;-2.02;98.49
68109;SHT30;54893;49.864;19.084;2023-02-15T05:04:29;-2.09;98.71
68109;SHT30;54893;49.864;19.084;2023-02-15T05:09:29;-1.99;97.69
68109;SHT30;54893;49.864;19.084;2023-02-15T05:14:30;-2.11;98.93
68109;SHT30;54893;49.864;19.084;2023-02-15T05:19:31;-2.09;98.79
68109;SHT30;54893;49.864;19.084;2023-02-15T05:24:31;-1.77;97.34
68109;SHT30;54893;49.864;19.084;2023-02-15T05:29:50;-1.80;98.19
68109;SHT30;54893;49.864;19.084;2023-02-15T05:34:50;-1.80;97.32
68109;SHT30;54893;49.864;19.084;2023-02-15T05:39:51;-1.77;98.06
68109;SHT30;54893;49.864;19.084;2023-02-15T05:44:51;-1.97;98.04
68109;SHT30;54893;49.864;19.084;2023-02-15T05:49:51;-2.07;98.97
68109;SHT30;54893;49.864;19.084;2023-02-15T05:54:52;-2.22;99.75
68109;SHT30;54893;49.864;19.084;2023-02-15T05:59:52;-2.17;99.99
68109;SHT30;54893;49.864;19.084;2023-02-15T06:04:52;-2.32;99.84
68109;SHT30;54893;49.864;19.084;2023-02-15T06:09:53;-2.31;99.98
68109;SHT30;54893;49.864;19.084;2023-02-15T06:14:53;-2.34;99.99
68109;SHT30;54893;49.864;19.084;2023-02-15T06:19:54;-2.45;99.94
68109;SHT30;54893;49.864;19.084;2023-02-15T06:24:54;-2.46;99.99
68109;SHT30;54893;49.864;19.084;2023-02-15T06:29:54;-2.39;99.99
68109;SHT30;54893;49.864;19.084;2023-02-15T06:34:54;-2.09;99.99
68109;SHT30;54893;49.864;19.084;2023-02-15T06:39:55;-1.77;99.99
68109;SHT30;54893;49.864;19.084;2023-02-15T06:44:55;-1.43;99.90
68109;SHT30;54893;49.864;19.084;2023-02-15T06:49:55;-0.97;99.99
68109;SHT30;54893;49.864;19.084;2023-02-15T06:54:57;-0.55;99.80
68109;SHT30;54893;49.864;19.084;2023-02-15T06:59:57;-0.14;99.55
68109;SHT30;54893;49.864;19.084;2023-02-15T07:04:58;0.23;98.94
68109;SHT30;54893;49.864;19.084;2023-02-15T07:09:58;0.57;98.62
68109;SHT30;54893;49.864;19.084;2023-02-15T07:14:59;1.04;98.05
68109;SHT30;54893;49.864;19.084;2023-02-15T07:19:59;1.34;96.47
68109;SHT30;54893;49.864;19.084;2023-02-15T07:25:00;1.42;93.88
68109;SHT30;54893;49.864;19.084;2023-02-15T07:30:00;1.42;92.51
68109;SHT30;54893;49.864;19.084;2023-02-15T07:35:01;1.74;92.27
68109;SHT30;54893;49.864;19.084;2023-02-15T07:40:01;1.80;94.19
68109;SHT30;54893;49.864;19.084;2023-02-15T07:45:01;1.99;93.69
68109;SHT30;54893;49.864;19.084;2023-02-15T07:50:02;1.93;90.65
68109;SHT30;54893;49.864;19.084;2023-02-15T07:55:02;1.89;90.96
68109;SHT30;54893;49.864;19.084;2023-02-15T08:00:03;2.37;92.37
68109;SHT30;54893;49.864;19.084;2023-02-15T08:05:04;2.84;90.84
68109;SHT30;54893;49.864;19.084;2023-02-15T08:10:04;3.29;88.45
68109;SHT30;54893;49.864;19.084;2023-02-15T08:15:07;3.77;89.07
68109;SHT30;54893;49.864;19.084;2023-02-15T08:20:08;3.59;88.97
68109;SHT30;54893;49.864;19.084;2023-02-15T08:25:08;4.01;87.91
68109;SHT30;54893;49.864;19.084;2023-02-15T08:30:09;3.87;87.66
68109;SHT30;54893;49.864;19.084;2023-02-15T08:35:14;4.01;89.30
68109;SHT30;54893;49.864;19.084;2023-02-15T08:40:14;3.82;86.53
68109;SHT30;54893;49.864;19.084;2023-02-15T08:45:16;3.93;88.26
68109;SHT30;54893;49.864;19.084;2023-02-15T08:50:16;3.98;85.25
68109;SHT30;54893;49.864;19.084;2023-02-15T08:55:16;3.74;83.18
68109;SHT30;54893;49.864;19.084;2023-02-15T09:00:17;3.94;83.81
68109;SHT30;54893;49.864;19.084;2023-02-15T09:05:18;3.86;83.57
68109;SHT30;54893;49.864;19.084;2023-02-15T09:10:18;4.16;85.05
68109;SHT30;54893;49.864;19.084;2023-02-15T09:15:19;4.33;84.42
68109;SHT30;54893;49.864;19.084;2023-02-15T09:20:20;4.52;83.52
68109;SHT30;54893;49.864;19.084;2023-02-15T09:25:20;5.09;82.80
68109;SHT30;54893;49.864;19.084;2023-02-15T09:30:21;5.46;82.20
68109;SHT30;54893;49.864;19.084;2023-02-15T09:35:22;5.74;82.61
68109;SHT30;54893;49.864;19.084;2023-02-15T09:40:23;5.95;81.35
68109;SHT30;54893;49.864;19.084;2023-02-15T09:45:32;6.01;80.71
68109;SHT30;54893;49.864;19.084;2023-02-15T09:56:02;6.07;81.39
68109;SHT30;54893;49.864;19.084;2023-02-15T10:22:02;5.78;79.69
68109;SHT30;54893;49.864;19.084;2023-02-15T10:27:24;5.98;78.51
68109;SHT30;54893;49.864;19.084;2023-02-15T10:32:27;6.42;79.23
68109;SHT30;54893;49.864;19.084;2023-02-15T10:37:46;6.29;78.18
68109;SHT30;54893;49.864;19.084;2023-02-15T10:43:30;6.05;78.64
68109;SHT30;54893;49.864;19.084;2023-02-15T10:48:46;6.55;79.26
68109;SHT30;54893;49.864;19.084;2023-02-15T10:54:01;6.42;76.96
68109;SHT30;54893;49.864;19.084;2023-02-15T10:59:29;6.69;78.24
68109;SHT30;54893;49.864;19.084;2023-02-15T11:04:34;7.16;75.85
68109;SHT30;54893;49.864;19.084;2023-02-15T11:09:40;7.43;79.76
68109;SHT30;54893;49.864;19.084;2023-02-15T11:14:52;7.26;77.22
68109;SHT30;54893;49.864;19.084;2023-02-15T11:20:30;7.13;74.92
68109;SHT30;54893;49.864;19.084;2023-02-15T11:25:33;7.29;76.09
68109;SHT30;54893;49.864;19.084;2023-02-15T11:30:46;7.12;75.74
68109;SHT30;54893;49.864;19.084;2023-02-15T11:35:59;7.71;77.44
68109;SHT30;54893;49.864;19.084;2023-02-15T11:41:11;7.87;78.65
68109;SHT30;54893;49.864;19.084;2023-02-15T11:46:12;7.98;76.53
68109;SHT30;54893;49.864;19.084;2023-02-15T11:51:18;8.05;76.04
68109;SHT30;54893;49.864;19.084;2023-02-15T11:56:21;8.25;75.53
68109;SHT30;54893;49.864;19.084;2023-02-15T12:01:34;8.46;74.79
68109;SHT30;54893;49.864;19.084;2023-02-15T12:06:46;8.53;75.21
68109;SHT30;54893;49.864;19.084;2023-02-15T12:11:48;8.22;73.01
68109;SHT30;54893;49.864;19.084;2023-02-15T12:16:51;8.52;76.36
68109;SHT30;54893;49.864;19.084;2023-02-15T12:21:59;8.72;75.12
68109;SHT30;54893;49.864;19.084;2023-02-15T12:27:02;8.35;73.00
68109;SHT30;54893;49.864;19.084;2023-02-15T12:32:04;8.50;74.36
68109;SHT30;54893;49.864;19.084;2023-02-15T12:37:14;8.39;72.34
68109;SHT30;54893;49.864;19.084;2023-02-15T12:42:16;8.20;74.53
68109;SHT30;54893;49.864;19.084;2023-02-15T12:47:19;8.18;73.19
68109;SHT30;54893;49.864;19.084;2023-02-15T12:57:32;8.55;73.57
68109;SHT30;54893;49.864;19.084;2023-02-15T13:07:49;8.39;75.07
68109;SHT30;54893;49.864;19.084;2023-02-15T13:12:50;8.39;73.33
68109;SHT30;54893;49.864;19.084;2023-02-15T13:17:55;8.35;75.38
68109;SHT30;54893;49.864;19.084;2023-02-15T13:23:00;8.46;76.73
68109;SHT30;54893;49.864;19.084;2023-02-15T13:28:02;8.60;74.18
68109;SHT30;54893;49.864;19.084;2023-02-15T13:33:13;8.37;74.47
68109;SHT30;54893;49.864;19.084;2023-02-15T13:49:37;8.52;75.70
68109;SHT30;54893;49.864;19.084;2023-02-15T14:10:34;8.37;75.06
68109;SHT30;54893;49.864;19.084;2023-02-15T14:15:46;8.22;78.13
68109;SHT30;54893;49.864;19.084;2023-02-15T14:26:30;8.24;76.54
68109;SHT30;54893;49.864;19.084;2023-02-15T14:31:41;8.25;76.63
68109;SHT30;54893;49.864;19.084;2023-02-15T14:36:43;8.05;76.31
68109;SHT30;54893;49.864;19.084;2023-02-15T14:41:57;8.01;77.80
68109;SHT30;54893;49.864;19.084;2023-02-15T14:47:04;7.87;77.12
68109;SHT30;54893;49.864;19.084;2023-02-15T14:52:10;7.74;77.04
68109;SHT30;54893;49.864;19.084;2023-02-15T15:02:43;7.31;76.80
68109;SHT30;54893;49.864;19.084;2023-02-15T15:07:51;7.17;77.63
68109;SHT30;54893;49.864;19.084;2023-02-15T15:12:57;6.96;78.83
68109;SHT30;54893;49.864;19.084;2023-02-15T15:17:58;6.78;78.89
68109;SHT30;54893;49.864;19.084;2023-02-15T15:23:43;6.53;79.48
68109;SHT30;54893;49.864;19.084;2023-02-15T15:34:10;6.31;80.30
68109;SHT30;54893;49.864;19.084;2023-02-15T15:45:02;6.61;81.82
68109;SHT30;54893;49.864;19.084;2023-02-15T15:50:15;6.13;82.07
68109;SHT30;54893;49.864;19.084;2023-02-15T15:55:20;5.90;82.30
68109;SHT30;54893;49.864;19.084;2023-02-15T16:00:50;5.71;81.86
68109;SHT30;54893;49.864;19.084;2023-02-15T16:05:52;5.50;81.80
68109;SHT30;54893;49.864;19.084;2023-02-15T16:10:55;5.30;82.30
68109;SHT30;54893;49.864;19.084;2023-02-15T16:15:56;5.18;82.31
68109;SHT30;54893;49.864;19.084;2023-02-15T16:20:59;5.06;82.47
68109;SHT30;54893;49.864;19.084;2023-02-15T16:31:21;5.08;82.04
68109;SHT30;54893;49.864;19.084;2023-02-15T16:36:23;4.52;83.57
68109;SHT30;54893;49.864;19.084;2023-02-15T16:41:28;4.10;84.70
68109;SHT30;54893;49.864;19.084;2023-02-15T16:51:33;3.53;86.73
68109;SHT30;54893;49.864;19.084;2023-02-15T16:56:35;3.48;87.08
68109;SHT30;54893;49.864;19.084;2023-02-15T17:01:36;3.38;86.74
68109;SHT30;54893;49.864;19.084;2023-02-15T17:06:36;3.23;87.84
68109;SHT30;54893;49.864;19.084;2023-02-15T17:11:42;3.32;87.35
68109;SHT30;54893;49.864;19.084;2023-02-15T17:16:44;3.12;88.74
68109;SHT30;54893;49.864;19.084;2023-02-15T17:21:51;2.85;88.62
68109;SHT30;54893;49.864;19.084;2023-02-15T17:26:55;3.33;87.44
68109;SHT30;54893;49.864;19.084;2023-02-15T17:32:01;3.33;87.43
68109;SHT30;54893;49.864;19.084;2023-02-15T17:37:02;3.25;88.04
68109;SHT30;54893;49.864;19.084;2023-02-15T17:42:03;3.13;88.32
68109;SHT30;54893;49.864;19.084;2023-02-15T17:47:03;2.91;88.49
68109;SHT30;54893;49.864;19.084;2023-02-15T17:52:03;2.80;88.76
68109;SHT30;54893;49.864;19.084;2023-02-15T17:57:14;2.77;89.01
68109;SHT30;54893;49.864;19.084;2023-02-15T18:02:15;2.78;88.47
68109;SHT30;54893;49.864;19.084;2023-02-15T18:07:34;2.70;88.68
68109;SHT30;54893;49.864;19.084;2023-02-15T18:12:53;2.45;89.57
68109;SHT30;54893;49.864;19.084;2023-02-15T18:17:53;2.33;90.94
68109;SHT30;54893;49.864;19.084;2023-02-15T18:22:54;2.21;90.55
68109;SHT30;54893;49.864;19.084;2023-02-15T18:27:54;2.21;89.66
68109;SHT30;54893;49.864;19.084;2023-02-15T18:32:57;2.17;89.53
68109;SHT30;54893;49.864;19.084;2023-02-15T18:37:59;2.14;89.55
68109;SHT30;54893;49.864;19.084;2023-02-15T18:43:00;1.87;90.04
68109;SHT30;54893;49.864;19.084;2023-02-15T18:48:00;1.84;90.62
68109;SHT30;54893;49.864;19.084;2023-02-15T18:53:05;1.84;90.93
68109;SHT30;54893;49.864;19.084;2023-02-15T18:58:20;1.74;90.85
68109;SHT30;54893;49.864;19.084;2023-02-15T19:03:20;1.69;90.90
68109;SHT30;54893;49.864;19.084;2023-02-15T19:08:21;1.60;91.75
68109;SHT30;54893;49.864;19.084;2023-02-15T19:13:23;1.73;92.01
68109;SHT30;54893;49.864;19.084;2023-02-15T19:18:23;1.53;92.42
68109;SHT30;54893;49.864;19.084;2023-02-15T19:23:25;1.45;93.00
68109;SHT30;54893;49.864;19.084;2023-02-15T19:28:32;1.49;93.28
68109;SHT30;54893;49.864;19.084;2023-02-15T19:33:33;1.18;93.95
68109;SHT30;54893;49.864;19.084;2023-02-15T19:38:34;0.99;94.30
68109;SHT30;54893;49.864;19.084;2023-02-15T19:43:35;0.60;95.37
68109;SHT30;54893;49.864;19.084;2023-02-15T19:48:36;0.28;96.22
68109;SHT30;54893;49.864;19.084;2023-02-15T19:53:36;0.00;96.72
68109;SHT30;54893;49.864;19.084;2023-02-15T19:58:36;-0.15;97.59
68109;SHT30;54893;49.864;19.084;2023-02-15T20:03:37;-0.22;98.36
68109;SHT30;54893;49.864;19.084;2023-02-15T20:08:37;-0.31;98.09
68109;SHT30;54893;49.864;19.084;2023-02-15T20:13:38;-0.15;96.55
68109;SHT30;54893;49.864;19.084;2023-02-15T20:18:39;-0.05;94.67
68109;SHT30;54893;49.864;19.084;2023-02-15T20:23:43;0.07;94.93
68109;SHT30;54893;49.864;19.084;2023-02-15T20:28:45;0.26;94.90
68109;SHT30;54893;49.864;19.084;2023-02-15T20:33:48;0.20;95.21
68109;SHT30;54893;49.864;19.084;2023-02-15T20:38:48;0.07;95.32
68109;SHT30;54893;49.864;19.084;2023-02-15T20:43:49;-0.05;96.25
68109;SHT30;54893;49.864;19.084;2023-02-15T20:48:49;-0.07;96.04
68109;SHT30;54893;49.864;19.084;2023-02-15T20:53:50;-0.17;95.96
68109;SHT30;54893;49.864;19.084;2023-02-15T20:58:51;-0.37;96.81
68109;SHT30;54893;49.864;19.084;2023-02-15T21:03:52;-0.38;96.30
68109;SHT30;54893;49.864;19.084;2023-02-15T21:08:52;-0.52;96.58
68109;SHT30;54893;49.864;19.084;2023-02-15T21:13:52;-0.51;96.72
68109;SHT30;54893;49.864;19.084;2023-02-15T21:18:53;-0.49;96.45
68109;SHT30;54893;49.864;19.084;2023-02-15T21:23:53;-0.55;96.58
68109;SHT30;54893;49.864;19.084;2023-02-15T21:28:53;-0.68;96.09
68109;SHT30;54893;49.864;19.084;2023-02-15T21:33:57;-0.39;96.35
68109;SHT30;54893;49.864;19.084;2023-02-15T21:38:58;-0.14;95.60
68109;SHT30;54893;49.864;19.084;2023-02-15T21:43:58;-0.21;95.54
68109;SHT30;54893;49.864;19.084;2023-02-15T21:49:17;-0.29;96.07
68109;SHT30;54893;49.864;19.084;2023-02-15T21:54:18;-0.34;96.44
68109;SHT30;54893;49.864;19.084;2023-02-15T21:59:19;-0.61;96.68
68109;SHT30;54893;49.864;19.084;2023-02-15T22:04:22;-0.76;97.20
68109;SHT30;54893;49.864;19.084;2023-02-15T22:09:25;-0.96;98.08
68109;SHT30;54893;49.864;19.084;2023-02-15T22:14:39;-1.26;98.40
68109;SHT30;54893;49.864;19.084;2023-02-15T22:19:41;-1.32;98.77
68109;SHT30;54893;49.864;19.084;2023-02-15T22:24:43;-1.36;99.71
68109;SHT30;54893;49.864;19.084;2023-02-15T22:29:44;-1.36;99.69
68109;SHT30;54893;49.864;19.084;2023-02-15T22:34:44;-1.47;99.62
68109;SHT30;54893;49.864;19.084;2023-02-15T22:39:45;-1.57;99.86
68109;SHT30;54893;49.864;19.084;2023-02-15T22:44:46;-1.75;99.99
68109;SHT30;54893;49.864;19.084;2023-02-15T22:49:47;-1.80;99.99
68109;SHT30;54893;49.864;19.084;2023-02-15T22:54:48;-1.73;99.99
68109;SHT30;54893;49.864;19.084;2023-02-15T22:59:48;-1.59;99.99
68109;SHT30;54893;49.864;19.084;2023-02-15T23:04:48;-1.50;98.65
68109;SHT30;54893;49.864;19.084;2023-02-15T23:09:49;-1.77;99.37
68109;SHT30;54893;49.864;19.084;2023-02-15T23:14:51;-1.59;98.47
68109;SHT30;54893;49.864;19.084;2023-02-15T23:19:51;-1.81;99.24
68109;SHT30;54893;49.864;19.084;2023-02-15T23:24:52;-1.98;99.67
68109;SHT30;54893;49.864;19.084;2023-02-15T23:29:52;-1.90;99.96
68109;SHT30;54893;49.864;19.084;2023-02-15T23:34:53;-2.22;99.92
68109;SHT30;54893;49.864;19.084;2023-02-15T23:39:53;-2.38;99.99
68109;SHT30;54893;49.864;19.084;2023-02-15T23:45:20;-2.51;99.99
68109;SHT30;54893;49.864;19.084;2023-02-15T23:50:24;-2.52;99.99
68109;SHT30;54893;49.864;19.084;2023-02-15T23:55:32;-2.69;99.99
